createdAt,value
2022-09-16T00:07:25.807Z,889.94025
2022-09-16T00:22:28.004Z,661.84259
2022-09-16T00:37:30.321Z,640.29004
2022-09-16T00:52:32.588Z,740.86853
2022-09-16T01:07:34.839Z,842.34509
2022-09-16T01:22:37.071Z,689.68127
2022-09-16T01:37:39.317Z,395.12988
2022-09-16T01:52:41.730Z,167.93021
2022-09-16T02:07:43.988Z,47.59519
2022-09-16T02:22:46.158Z,3.59209
2022-09-16T02:37:48.419Z,0
2022-09-16T02:52:50.701Z,0
2022-09-16T03:07:53.043Z,0
2022-09-16T03:22:55.318Z,0
2022-09-16T03:37:57.557Z,0
2022-09-16T03:52:59.780Z,0
2022-09-16T04:08:01.982Z,0
2022-09-16T04:23:04.254Z,0
2022-09-16T04:38:06.491Z,0
2022-09-16T04:53:08.686Z,0
2022-09-16T05:08:10.915Z,0
2022-09-16T05:23:13.112Z,0
2022-09-16T05:38:15.442Z,0
2022-09-16T05:53:17.838Z,0
2022-09-16T06:08:20.024Z,0
2022-09-16T06:23:22.327Z,0
2022-09-16T06:38:24.619Z,0
2022-09-16T06:53:26.855Z,0
2022-09-16T07:08:29.140Z,0
2022-09-16T07:23:31.336Z,0
2022-09-16T07:38:33.548Z,0
2022-09-16T07:53:36.021Z,0
2022-09-16T08:08:38.249Z,0
2022-09-16T08:23:40.676Z,0
2022-09-16T08:38:42.883Z,0
2022-09-16T08:53:45.178Z,0
2022-09-16T09:08:47.427Z,0
2022-09-16T09:23:49.623Z,0
2022-09-16T09:38:51.868Z,0
2022-09-16T09:53:54.093Z,0
2022-09-16T10:08:56.297Z,0
2022-09-16T10:23:58.526Z,0
2022-09-16T10:39:04.474Z,0
2022-09-16T10:54:07.432Z,0
2022-09-16T11:09:09.722Z,0
2022-09-16T11:24:11.985Z,0
2022-09-16T11:39:14.205Z,0
2022-09-16T11:54:16.587Z,0
2022-09-16T12:09:18.841Z,0
2022-09-16T12:24:21.159Z,0
2022-09-16T12:39:23.373Z,0
2022-09-16T12:54:25.570Z,0
2022-09-16T13:09:27.964Z,7.18418
2022-09-16T13:24:30.378Z,33.22683
2022-09-16T13:39:32.603Z,84.41412
2022-09-16T13:54:43.191Z,180.50252
2022-09-16T14:09:56.026Z,255.03838
2022-09-16T14:25:06.898Z,461.58356
2022-09-16T14:40:21.539Z,930.35126
2022-09-16T14:55:23.883Z,1472.75684
2022-09-16T15:10:26.103Z,969.86426
2022-09-16T15:25:28.333Z,478.64597
2022-09-16T15:40:30.938Z,217.32144
2022-09-16T15:55:33.233Z,208.34122
2022-09-16T16:10:35.501Z,481.34006
2022-09-16T16:25:37.819Z,678.00696
2022-09-16T16:40:40.157Z,918.677
2022-09-16T16:55:42.387Z,1138.6925
2022-09-16T17:10:44.576Z,678.90497
2022-09-16T17:25:46.805Z,1449.40833
2022-09-16T17:40:49.040Z,1143.18262
2022-09-16T17:55:51.301Z,1243.76111
2022-09-16T18:10:53.658Z,2073.53394
2022-09-16T18:25:56.111Z,4151.55811
2022-09-16T18:40:58.392Z,5225.59277
2022-09-16T18:56:00.764Z,6713.61621
2022-09-16T19:11:02.946Z,6263.70654
2022-09-16T19:26:05.254Z,2809.91235
2022-09-16T19:41:07.586Z,3953.99292
2022-09-16T19:56:09.859Z,7756.22021
2022-09-16T20:11:12.197Z,3026.33569
2022-09-16T20:26:14.446Z,7684.37842
2022-09-16T20:41:16.642Z,2679.69897
2022-09-16T20:56:18.911Z,2342.94067
2022-09-16T21:11:21.167Z,7822.67383
2022-09-16T21:26:23.805Z,4129.10742
2022-09-16T21:41:26.161Z,2844.9353
2022-09-16T21:56:28.431Z,457.09344
2022-09-16T22:11:30.634Z,983.33459
2022-09-16T22:26:32.836Z,369.98526
2022-09-16T22:41:35.039Z,842.34509
2022-09-16T22:56:37.268Z,1209.63623
2022-09-16T23:11:39.466Z,232.58781
2022-09-16T23:26:41.689Z,171.52229
2022-09-16T23:41:43.926Z,132.90733
2022-09-16T23:56:46.127Z,215.52539
